Terminal Aerodrome Forecast
Issued by NWS

Current Version | Previous Version | Graphics & Text | Print | Product List | Glossary On
Versions: 1 2 3 4 5 6 7 8 9 10 11 12 13 14 15 16 17 18 19
000
FTUS41 KRNK 211120
TAFLWB
TAF
KLWB 211120Z 2112/2212 26004KT P6SM BKN110
     FM211700 27010KT P6SM VCTS OVC035CB
     FM211900 28010KT 5SM SHRA VCTS SCT025CB BKN035
     FM212300 28007KT 5SM BR VCSH BKN045
     FM220000 29004KT P6SM BKN040
     FM220500 00000KT 3SM SHRA BR OVC030=

USA.gov is the U.S. government's official web portal to all federal, state and local government web resources and services.